Aérodrome :
LOGIN :

S'inscrire | Disclaimer

   EN    FR    IT 

 










Légende :    VFR   VFR Marginal   IFR   IFR Intensif   IFR Très Intensif
Visi : 
Plafond : 
>= 8 km
>= 3000ft
5 à 8 km
1000 à 3000 ft
1500m à 5 km
500 à 1000 ft
800 à 1500m
200 à 500 ft
< 800m
< 200 ft
Symboles :   Orages  Brouillard  Fortes neiges  Fortes précipitations  Vent > 20 kt
SIGMETs :   Divers  Orages  Givrage  Turbulence  Onde Orograph.  Cendres Volcan.






- Altitude de l'aérodrome : 218 ft


EGYD - RAF Cranwell

DERNIER METAR :
  • 220950Z 09004KT CAVOK 09/M01 Q1028 NOSIG RMK BLU BLU

METARs EXPIRÉS :
  • 220922Z 08004KT CAVOK 08/M00 Q1028 NOSIG RMK BLU BLU
  • 220850Z 09002KT CAVOK 08/01 Q1029 NOSIG RMK BLU BLU
  • 220822Z 10003KT CAVOK 07/01 Q1028 NOSIG RMK BLU BLU
  • 220750Z 05003KT CAVOK 07/01 Q1028 NOSIG RMK BLU BLU
  • 220721Z 05004KT CAVOK 06/02 Q1028 NOSIG RMK BLU BLU

TAF TAF EGYD
Valide du 22 à 09h jusqu'au 22 à 18h UTC


220727Z 2209/2218 10006KT CAVOK



MET'MAP, la Météo Aéronautique d'un coup d'oeil ! - Copyright ORBIFLY Décembre 2007 - Disclaimer

ORBIFLY MET'MAP TEAM :

Programmation & Développement : Alexandra Zaïnal
Sur une idée originale de : Baudouin d'Aumeries
Assistance à la programmation : Marc-Olivier Méhu
Soutien technique & logistique : Manuel Goepfert

Contact : metmap@orbifly.com




SOURCES & CREDITS :

   NOAA